createdAt,value
2018-07-08T00:01:08.672Z,6.27
2018-07-08T00:03:36.819Z,6.50
2018-07-08T00:06:04.997Z,7.33
2018-07-08T00:08:33.142Z,7.13
2018-07-08T00:11:01.251Z,6.27
2018-07-08T00:13:29.378Z,7.37
2018-07-08T00:15:57.552Z,6.37
2018-07-08T00:18:25.742Z,7.87
2018-07-08T00:20:54.949Z,7.17
2018-07-08T00:23:23.762Z,7.03
2018-07-08T00:25:51.897Z,6.40
2018-07-08T00:28:20.323Z,5.77
2018-07-08T00:30:48.453Z,7.00
2018-07-08T00:33:16.557Z,6.20
2018-07-08T00:35:44.694Z,5.87
2018-07-08T00:38:12.877Z,5.60
2018-07-08T00:40:40.982Z,5.97
2018-07-08T00:43:09.086Z,6.57
2018-07-08T00:45:37.222Z,5.47
2018-07-08T00:48:05.462Z,6.13
2018-07-08T00:50:33.569Z,5.67
2018-07-08T00:53:01.722Z,5.40
2018-07-08T00:55:29.883Z,5.77
2018-07-08T00:57:58.025Z,6.67
2018-07-08T01:00:30.213Z,6.10
2018-07-08T01:02:58.515Z,6.47
2018-07-08T01:05:26.761Z,6.23
2018-07-08T01:07:54.926Z,6.30
2018-07-08T01:10:23.130Z,6.27
2018-07-08T01:12:51.274Z,5.73
2018-07-08T01:15:19.398Z,6.00
2018-07-08T01:17:47.523Z,6.30
2018-07-08T01:20:15.671Z,6.70
2018-07-08T01:22:43.798Z,6.93
2018-07-08T01:25:13.434Z,5.40
2018-07-08T01:27:41.618Z,6.27
2018-07-08T01:30:11.009Z,5.93
2018-07-08T01:32:39.129Z,6.33
2018-07-08T01:35:07.958Z,6.10
2018-07-08T01:37:36.068Z,6.37
2018-07-08T01:40:04.703Z,5.10
2018-07-08T01:42:32.854Z,5.60
2018-07-08T01:45:01.494Z,5.63
2018-07-08T01:47:29.636Z,6.57
2018-07-08T01:49:57.762Z,5.90
2018-07-08T01:52:26.089Z,6.83
2018-07-08T01:54:55.006Z,6.00
2018-07-08T01:57:23.795Z,6.60
2018-07-08T01:59:52.579Z,6.70
2018-07-08T02:02:21.382Z,6.23
2018-07-08T02:04:50.051Z,6.23
2018-07-08T02:07:18.267Z,6.70
2018-07-08T02:09:47.030Z,7.00
2018-07-08T02:12:15.394Z,6.60
2018-07-08T02:14:43.910Z,6.20
2018-07-08T02:17:12.554Z,5.80
2018-07-08T02:19:40.751Z,5.40
2018-07-08T02:22:08.875Z,5.67
2018-07-08T02:24:36.994Z,6.23
2018-07-08T02:27:05.479Z,5.97
2018-07-08T02:29:33.969Z,5.53
2018-07-08T02:32:02.100Z,5.63
2018-07-08T02:34:30.686Z,5.33
2018-07-08T02:36:58.821Z,5.80
2018-07-08T02:39:26.954Z,5.37
2018-07-08T02:41:55.171Z,5.37
2018-07-08T02:44:23.302Z,5.97
2018-07-08T02:46:51.646Z,5.57
2018-07-08T02:49:20.379Z,5.57
2018-07-08T02:51:48.842Z,4.83
2018-07-08T02:54:17.226Z,5.27
2018-07-08T02:56:45.362Z,4.73
2018-07-08T02:59:13.502Z,5.47
2018-07-08T03:01:41.642Z,5.00
2018-07-08T03:04:09.828Z,5.30
2018-07-08T03:06:37.934Z,5.47
2018-07-08T03:09:06.759Z,5.40
2018-07-08T03:11:34.870Z,5.50
2018-07-08T03:14:03.432Z,5.27
2018-07-08T03:16:31.546Z,5.17
2018-07-08T03:18:59.806Z,6.00
2018-07-08T03:21:27.938Z,5.43
2018-07-08T03:23:56.079Z,5.70
2018-07-08T03:26:24.199Z,6.03
2018-07-08T03:28:52.370Z,5.50
2018-07-08T03:31:20.503Z,5.43
2018-07-08T03:33:48.726Z,5.50
2018-07-08T03:36:16.906Z,4.90
2018-07-08T03:38:45.182Z,5.70
2018-07-08T03:41:13.368Z,5.93
2018-07-08T03:43:41.599Z,6.20
2018-07-08T03:46:09.895Z,5.63
2018-07-08T03:48:38.401Z,6.20
2018-07-08T03:51:06.721Z,5.67
2018-07-08T03:53:34.930Z,5.90
2018-07-08T03:56:03.073Z,5.50
2018-07-08T03:58:31.206Z,6.13
2018-07-08T04:00:59.346Z,6.03
2018-07-08T04:03:27.497Z,5.53
2018-07-08T04:05:55.654Z,5.67
2018-07-08T04:08:23.771Z,5.47
2018-07-08T04:10:52.267Z,5.50
2018-07-08T04:13:20.427Z,5.50
2018-07-08T04:15:48.762Z,6.30
2018-07-08T04:18:17.066Z,5.70
2018-07-08T04:20:51.599Z,5.57
2018-07-08T04:23:19.894Z,5.37
2018-07-08T04:25:48.247Z,5.30
2018-07-08T04:28:16.430Z,5.30
2018-07-08T04:30:44.650Z,5.17
2018-07-08T04:33:12.831Z,5.80
2018-07-08T04:35:40.962Z,5.07
2018-07-08T04:38:09.101Z,5.20
2018-07-08T04:40:37.260Z,4.90
2018-07-08T04:43:05.394Z,4.90
2018-07-08T04:45:33.517Z,5.20
2018-07-08T04:48:01.824Z,4.97
2018-07-08T04:50:29.969Z,5.03
2018-07-08T04:52:58.139Z,5.40
2018-07-08T04:55:26.280Z,5.40
2018-07-08T04:57:54.422Z,6.27
2018-07-08T05:00:22.563Z,6.47
2018-07-08T05:02:50.723Z,5.63
2018-07-08T05:05:18.867Z,5.30
2018-07-08T05:07:47.018Z,5.80
2018-07-08T05:10:15.139Z,6.17
2018-07-08T05:12:43.297Z,5.87
2018-07-08T05:15:11.503Z,5.03
2018-07-08T05:17:39.646Z,5.17
2018-07-08T05:20:07.867Z,4.83
2018-07-08T05:22:36.011Z,4.73
2018-07-08T05:25:04.279Z,4.70
2018-07-08T05:27:32.411Z,4.87
2018-07-08T05:30:00.559Z,4.47
2018-07-08T05:32:28.685Z,4.30
2018-07-08T05:34:56.814Z,4.40
2018-07-08T05:37:24.958Z,4.73
2018-07-08T05:39:53.094Z,4.63
2018-07-08T05:42:21.338Z,4.90
2018-07-08T05:44:49.456Z,4.23
2018-07-08T05:47:17.582Z,4.07
2018-07-08T05:49:45.725Z,4.40
2018-07-08T05:52:13.854Z,4.37
2018-07-08T05:54:41.989Z,4.43
2018-07-08T05:57:10.182Z,4.07
2018-07-08T05:59:38.334Z,4.47
2018-07-08T06:02:06.534Z,4.50
2018-07-08T06:04:34.719Z,4.50
2018-07-08T06:07:02.801Z,4.60
2018-07-08T06:09:30.923Z,4.33
2018-07-08T06:11:59.059Z,4.70
2018-07-08T06:14:27.187Z,4.43
2018-07-08T06:16:55.396Z,4.53
2018-07-08T06:19:23.462Z,3.83
2018-07-08T06:21:51.608Z,4.10
2018-07-08T06:24:19.778Z,4.03
2018-07-08T06:26:47.910Z,3.60
2018-07-08T06:29:16.042Z,3.70
2018-07-08T06:31:44.205Z,3.77
2018-07-08T06:34:12.291Z,3.80
2018-07-08T06:36:40.571Z,4.07
2018-07-08T06:39:08.809Z,3.63
2018-07-08T06:41:37.082Z,4.20
2018-07-08T06:44:05.210Z,3.93
2018-07-08T06:46:33.330Z,4.77
2018-07-08T06:49:01.572Z,4.07
2018-07-08T06:51:29.733Z,3.67
2018-07-08T06:53:57.882Z,4.27
2018-07-08T06:56:26.082Z,3.63
2018-07-08T06:58:54.196Z,3.93
2018-07-08T07:01:22.401Z,3.93
2018-07-08T07:03:50.530Z,4.33
2018-07-08T07:06:18.659Z,3.90
2018-07-08T07:08:46.792Z,3.93
2018-07-08T07:11:14.908Z,3.70
2018-07-08T07:13:43.039Z,3.90
2018-07-08T07:16:11.191Z,3.90
2018-07-08T07:18:39.326Z,3.63
2018-07-08T07:21:07.459Z,3.60
2018-07-08T07:23:35.618Z,3.33
2018-07-08T07:26:03.742Z,4.20
2018-07-08T07:28:31.907Z,3.90
2018-07-08T07:31:00.009Z,3.97
2018-07-08T07:33:28.203Z,3.40
2018-07-08T07:35:56.406Z,3.80
2018-07-08T07:38:24.678Z,3.10
2018-07-08T07:40:52.799Z,3.57
2018-07-08T07:43:21.323Z,3.67
2018-07-08T07:45:49.999Z,3.47
2018-07-08T07:48:18.295Z,3.37
2018-07-08T07:50:46.422Z,3.87
2018-07-08T07:53:14.546Z,4.70
2018-07-08T07:55:42.666Z,3.97
2018-07-08T07:58:10.782Z,3.70
2018-07-08T08:00:38.918Z,4.00
2018-07-08T08:03:07.032Z,3.60
2018-07-08T08:05:35.166Z,3.40
2018-07-08T08:08:03.278Z,3.47
2018-07-08T08:10:31.461Z,3.13
2018-07-08T08:12:59.732Z,3.47
2018-07-08T08:15:27.810Z,3.70
2018-07-08T08:17:55.934Z,3.10
2018-07-08T08:20:24.177Z,2.93
2018-07-08T08:22:52.351Z,2.90
2018-07-08T08:25:20.476Z,3.30
2018-07-08T08:27:49.600Z,3.17
2018-07-08T08:30:17.712Z,2.93
2018-07-08T08:32:45.889Z,3.07
2018-07-08T08:35:17.018Z,3.20
2018-07-08T08:37:50.410Z,3.30
2018-07-08T08:40:19.617Z,2.73
2018-07-08T08:42:47.781Z,2.80
2018-07-08T08:45:16.982Z,2.77
2018-07-08T08:47:45.273Z,2.67
2018-07-08T08:50:13.858Z,2.53
2018-07-08T08:52:42.015Z,2.70
2018-07-08T08:55:11.022Z,2.80
2018-07-08T08:57:39.202Z,2.73
2018-07-08T09:00:09.985Z,2.77
2018-07-08T09:02:38.109Z,3.13
2018-07-08T09:05:06.655Z,2.70
2018-07-08T09:07:34.830Z,2.60
2018-07-08T09:10:03.137Z,2.70
2018-07-08T09:12:31.308Z,3.07
2018-07-08T09:14:59.403Z,2.70
2018-07-08T09:17:27.546Z,2.93
2018-07-08T09:19:55.667Z,3.00
2018-07-08T09:22:23.892Z,2.60
2018-07-08T09:24:52.014Z,2.43
2018-07-08T09:27:20.151Z,2.87
2018-07-08T09:29:48.280Z,2.73
2018-07-08T09:32:16.490Z,3.10
2018-07-08T09:34:44.626Z,2.10
2018-07-08T09:37:12.747Z,2.90
2018-07-08T09:39:40.899Z,2.70
2018-07-08T09:42:09.049Z,3.00
2018-07-08T09:44:37.173Z,3.07
2018-07-08T09:47:05.362Z,2.73
2018-07-08T09:49:33.486Z,3.20
2018-07-08T09:52:01.645Z,2.70
2018-07-08T09:54:29.746Z,2.70
2018-07-08T09:56:57.878Z,2.30
2018-07-08T09:59:26.164Z,2.93
2018-07-08T10:01:54.318Z,3.10
2018-07-08T10:04:23.672Z,3.10
2018-07-08T10:06:52.471Z,2.40
2018-07-08T10:09:21.679Z,2.90
2018-07-08T10:11:49.830Z,2.77
2018-07-08T10:14:19.342Z,2.60
2018-07-08T10:16:47.463Z,3.00
2018-07-08T10:19:16.824Z,2.90
2018-07-08T10:21:44.986Z,2.90
2018-07-08T10:24:13.389Z,3.00
2018-07-08T10:26:41.518Z,2.93
2018-07-08T10:29:11.634Z,2.80
2018-07-08T10:31:50.585Z,3.03
2018-07-08T10:34:19.070Z,3.00
2018-07-08T10:36:47.195Z,2.70
2018-07-08T10:39:16.047Z,3.23
2018-07-08T10:41:44.210Z,2.80
2018-07-08T10:44:12.691Z,2.80
2018-07-08T10:46:41.314Z,2.60
2018-07-08T10:49:09.754Z,3.27
2018-07-08T10:51:37.920Z,2.60
2018-07-08T10:54:06.676Z,2.90
2018-07-08T10:56:34.867Z,2.73
2018-07-08T10:59:03.041Z,2.57
2018-07-08T11:01:31.220Z,3.13
2018-07-08T11:03:59.334Z,2.87
2018-07-08T11:06:27.451Z,3.00
2018-07-08T11:08:55.600Z,3.33
2018-07-08T11:11:23.763Z,2.87
2018-07-08T11:13:52.003Z,2.97
2018-07-08T11:16:20.163Z,3.10
2018-07-08T11:18:48.402Z,3.20
2018-07-08T11:21:16.545Z,3.03
2018-07-08T11:23:44.687Z,3.20
2018-07-08T11:26:12.836Z,2.90
2018-07-08T11:28:41.029Z,2.90
2018-07-08T11:31:09.190Z,2.70
2018-07-08T11:33:37.346Z,3.03
2018-07-08T11:36:05.548Z,3.20
2018-07-08T11:38:33.687Z,2.53
2018-07-08T11:41:01.851Z,2.70
2018-07-08T11:43:29.997Z,3.10
2018-07-08T11:45:58.158Z,3.13
2018-07-08T11:48:26.301Z,2.83
2018-07-08T11:50:54.455Z,3.57
2018-07-08T11:53:22.592Z,2.80
2018-07-08T11:55:50.740Z,2.57
2018-07-08T11:58:18.874Z,2.73
2018-07-08T12:00:47.034Z,3.20
2018-07-08T12:03:15.176Z,3.07
2018-07-08T12:05:43.395Z,3.20
2018-07-08T12:08:11.519Z,2.83
2018-07-08T12:10:40.071Z,3.20
2018-07-08T12:13:08.489Z,2.80
2018-07-08T12:15:37.702Z,2.63
2018-07-08T12:18:06.218Z,2.63
2018-07-08T12:20:34.405Z,3.00
2018-07-08T12:23:02.538Z,2.73
2018-07-08T12:25:30.826Z,2.60
2018-07-08T12:27:59.018Z,3.17
2018-07-08T12:30:27.274Z,2.90
2018-07-08T12:32:55.466Z,2.60
2018-07-08T12:35:23.738Z,2.47
2018-07-08T12:37:51.949Z,3.10
2018-07-08T12:40:20.196Z,2.97
2018-07-08T12:42:48.368Z,3.30
2018-07-08T12:45:16.611Z,2.80
2018-07-08T12:47:44.785Z,2.83
2018-07-08T12:50:12.938Z,2.80
2018-07-08T12:52:41.089Z,3.10
2018-07-08T12:55:09.351Z,3.07
2018-07-08T12:57:37.494Z,3.33
2018-07-08T13:00:05.857Z,3.50
2018-07-08T13:02:33.989Z,3.23
2018-07-08T13:05:02.168Z,2.93
2018-07-08T13:07:30.322Z,3.10
2018-07-08T13:09:58.486Z,3.27
2018-07-08T13:12:26.625Z,3.20
2018-07-08T13:14:54.798Z,3.63
2018-07-08T13:17:22.943Z,2.97
2018-07-08T13:19:51.103Z,2.80
2018-07-08T13:22:19.337Z,3.17
2018-07-08T13:24:47.488Z,2.97
2018-07-08T13:27:15.626Z,2.93
2018-07-08T13:29:43.821Z,3.00
2018-07-08T13:32:12.028Z,2.83
2018-07-08T13:34:40.103Z,3.27
2018-07-08T13:37:08.254Z,3.07
2018-07-08T13:39:36.380Z,2.93
2018-07-08T13:42:04.516Z,3.37
2018-07-08T13:44:32.699Z,2.60
2018-07-08T13:47:00.585Z,2.97
2018-07-08T13:49:28.732Z,2.43
2018-07-08T13:51:56.890Z,2.87
2018-07-08T13:54:25.083Z,2.70
2018-07-08T13:56:53.262Z,2.30
2018-07-08T13:59:21.521Z,2.90
2018-07-08T14:01:49.674Z,2.50
2018-07-08T14:04:17.807Z,2.57
2018-07-08T14:06:45.938Z,2.40
2018-07-08T14:09:14.135Z,2.47
2018-07-08T14:11:42.266Z,2.37
2018-07-08T14:14:10.389Z,2.83
2018-07-08T14:16:38.627Z,2.40
2018-07-08T14:19:06.763Z,2.40
2018-07-08T14:21:34.901Z,2.53
2018-07-08T14:24:03.099Z,2.57
2018-07-08T14:26:31.231Z,2.80
2018-07-08T14:28:59.402Z,2.50
2018-07-08T14:31:27.539Z,2.33
2018-07-08T14:33:55.677Z,2.50
2018-07-08T14:36:23.791Z,2.40
2018-07-08T14:38:51.919Z,2.20
2018-07-08T14:41:20.039Z,2.40
2018-07-08T14:43:48.183Z,2.70
2018-07-08T14:46:16.432Z,2.37
2018-07-08T14:48:44.480Z,2.50
2018-07-08T14:51:12.638Z,2.70
2018-07-08T14:53:40.765Z,2.50
2018-07-08T14:56:08.878Z,2.50
2018-07-08T14:58:37.015Z,2.50
2018-07-08T15:01:05.223Z,2.87
2018-07-08T15:03:33.361Z,2.23
2018-07-08T15:06:01.487Z,2.63
2018-07-08T15:08:29.653Z,2.80
2018-07-08T15:10:57.789Z,2.30
2018-07-08T15:13:25.926Z,2.60
2018-07-08T15:15:54.138Z,2.20
2018-07-08T15:18:22.206Z,2.00
2018-07-08T15:20:50.345Z,2.50
2018-07-08T15:23:18.466Z,1.93
2018-07-08T15:25:46.586Z,2.17
2018-07-08T15:28:15.020Z,2.03
2018-07-08T15:30:43.153Z,1.97
2018-07-08T15:33:11.819Z,2.03
2018-07-08T15:35:39.954Z,1.70
2018-07-08T15:38:09.755Z,1.63
2018-07-08T15:40:37.998Z,1.80
2018-07-08T15:43:06.176Z,2.33
2018-07-08T15:45:34.303Z,7.73
2018-07-08T15:48:02.448Z,7.00
2018-07-08T15:50:30.652Z,2.00
2018-07-08T15:52:58.814Z,2.13
2018-07-08T15:55:26.955Z,2.00
2018-07-08T15:57:55.134Z,3.20
2018-07-08T16:00:23.296Z,2.70
2018-07-08T16:02:51.431Z,2.50
2018-07-08T16:05:19.594Z,2.40
2018-07-08T16:07:47.703Z,2.43
2018-07-08T16:10:15.823Z,2.07
2018-07-08T16:12:43.948Z,1.90
2018-07-08T16:15:12.207Z,2.70
2018-07-08T16:17:40.346Z,5.30
2018-07-08T16:20:08.588Z,2.10
2018-07-08T16:22:36.717Z,2.00
2018-07-08T16:25:04.907Z,1.87
2018-07-08T16:27:33.022Z,1.77
2018-07-08T16:30:01.165Z,2.77
2018-07-08T16:32:29.390Z,2.40
2018-07-08T16:34:57.617Z,2.20
2018-07-08T16:37:26.095Z,2.60
2018-07-08T16:39:55.498Z,1.97
2018-07-08T16:42:23.834Z,2.50
2018-07-08T16:44:51.951Z,2.10
2018-07-08T16:47:20.124Z,2.10
2018-07-08T16:49:48.269Z,2.07
2018-07-08T16:52:16.474Z,1.73
2018-07-08T16:54:44.735Z,1.70
2018-07-08T16:57:12.954Z,1.90
2018-07-08T16:59:41.084Z,1.67
2018-07-08T17:02:09.584Z,1.70
2018-07-08T17:04:38.041Z,1.50
2018-07-08T17:07:06.444Z,1.80
2018-07-08T17:09:34.569Z,1.60
2018-07-08T17:12:02.743Z,1.30
2018-07-08T17:14:30.904Z,1.60
2018-07-08T17:16:59.145Z,1.73
2018-07-08T17:19:27.266Z,1.57
2018-07-08T17:21:56.012Z,1.30
2018-07-08T17:24:24.258Z,1.60
2018-07-08T17:26:52.928Z,1.50
2018-07-08T17:29:21.049Z,1.30
2018-07-08T17:31:49.410Z,1.30
2018-07-08T17:34:17.733Z,1.60
2018-07-08T17:36:45.950Z,1.20
2018-07-08T17:39:14.376Z,1.40
2018-07-08T17:41:42.552Z,1.50
2018-07-08T17:44:10.797Z,1.50
2018-07-08T17:46:39.111Z,1.60
2018-07-08T17:49:07.202Z,1.30
2018-07-08T17:51:35.587Z,1.30
2018-07-08T17:54:03.731Z,1.30
2018-07-08T17:56:32.055Z,1.40
2018-07-08T17:59:00.219Z,1.10
2018-07-08T18:01:28.425Z,1.30
2018-07-08T18:03:56.584Z,1.17
2018-07-08T18:06:24.761Z,1.10
2018-07-08T18:08:52.952Z,1.27
2018-07-08T18:11:21.118Z,1.60
2018-07-08T18:13:50.318Z,1.50
2018-07-08T18:16:18.777Z,1.43
2018-07-08T18:18:46.945Z,1.40
2018-07-08T18:21:15.575Z,1.73
2018-07-08T18:23:43.633Z,1.50
2018-07-08T18:26:11.863Z,1.30
2018-07-08T18:28:40.019Z,1.20
2018-07-08T18:31:08.166Z,1.73
2018-07-08T18:33:36.298Z,1.70
2018-07-08T18:36:04.416Z,2.20
2018-07-08T18:38:32.596Z,1.80
2018-07-08T18:41:00.742Z,1.60
2018-07-08T18:43:28.914Z,1.77
2018-07-08T18:45:57.047Z,1.87
2018-07-08T18:48:25.220Z,1.80
2018-07-08T18:50:53.369Z,2.17
2018-07-08T18:53:21.566Z,2.23
2018-07-08T18:55:51.095Z,1.87
2018-07-08T18:58:19.423Z,2.07
2018-07-08T19:00:47.597Z,2.00
2018-07-08T19:03:15.726Z,1.93
2018-07-08T19:05:43.946Z,1.97
2018-07-08T19:08:12.019Z,2.13
2018-07-08T19:10:40.150Z,2.57
2018-07-08T19:13:08.346Z,2.20
2018-07-08T19:15:36.273Z,2.10
2018-07-08T19:18:04.516Z,2.50
2018-07-08T19:20:32.618Z,7.17
2018-07-08T19:23:00.799Z,9.27
2018-07-08T19:25:29.006Z,9.00
2018-07-08T19:27:57.490Z,25.13
2018-07-08T19:30:25.659Z,37.50
2018-07-08T19:32:53.909Z,31.73
2018-07-08T19:35:22.059Z,22.17
2018-07-08T19:37:50.295Z,16.83
2018-07-08T19:40:18.494Z,11.60
2018-07-08T19:42:46.659Z,6.20
2018-07-08T19:45:14.826Z,5.63
2018-07-08T19:47:43.008Z,5.77
2018-07-08T19:50:11.146Z,4.80
2018-07-08T19:52:39.302Z,4.70
2018-07-08T19:55:07.466Z,7.33
2018-07-08T19:57:35.616Z,5.60
2018-07-08T20:00:03.950Z,6.27
2018-07-08T20:02:32.123Z,7.27
2018-07-08T20:05:00.332Z,5.20
2018-07-08T20:07:28.647Z,6.80
2018-07-08T20:09:56.763Z,6.40
2018-07-08T20:12:24.923Z,5.17
2018-07-08T20:14:53.114Z,5.73
2018-07-08T20:17:22.038Z,3.57
2018-07-08T20:19:50.210Z,3.70
2018-07-08T20:22:18.367Z,4.03
2018-07-08T20:24:46.571Z,3.33
2018-07-08T20:27:14.766Z,3.40
2018-07-08T20:29:43.004Z,3.40
2018-07-08T20:32:11.184Z,3.50
2018-07-08T20:34:39.326Z,4.43
2018-07-08T20:37:07.492Z,5.00
2018-07-08T20:39:35.649Z,5.53
2018-07-08T20:42:03.774Z,4.53
2018-07-08T20:44:31.975Z,4.93
2018-07-08T20:47:00.210Z,4.77
2018-07-08T20:49:28.360Z,4.60
2018-07-08T20:51:57.556Z,3.63
2018-07-08T20:54:25.735Z,4.10
2018-07-08T20:56:53.962Z,4.33
2018-07-08T20:59:22.122Z,4.00
2018-07-08T21:01:50.395Z,2.97
2018-07-08T21:04:18.658Z,2.90
2018-07-08T21:06:46.914Z,3.30
2018-07-08T21:09:15.121Z,3.23
2018-07-08T21:11:43.305Z,2.97
2018-07-08T21:14:11.436Z,3.00
2018-07-08T21:16:39.616Z,3.03
2018-07-08T21:19:07.859Z,3.10
2018-07-08T21:21:36.601Z,2.80
2018-07-08T21:24:04.937Z,2.60
2018-07-08T21:26:33.134Z,2.70
2018-07-08T21:29:01.257Z,2.57
2018-07-08T21:31:29.452Z,2.37
2018-07-08T21:33:57.671Z,2.43
2018-07-08T21:36:25.811Z,2.37
2018-07-08T21:38:54.033Z,2.10
2018-07-08T21:41:22.235Z,2.40
2018-07-08T21:43:50.425Z,2.73
2018-07-08T21:46:18.591Z,2.17
2018-07-08T21:48:46.770Z,2.00
2018-07-08T21:51:14.947Z,2.30
2018-07-08T21:53:43.139Z,2.10
2018-07-08T21:56:11.354Z,2.40
2018-07-08T21:58:39.602Z,2.00
2018-07-08T22:01:11.964Z,2.47
2018-07-08T22:03:40.636Z,2.60
2018-07-08T22:06:08.792Z,2.90
2018-07-08T22:08:36.982Z,3.23
2018-07-08T22:11:06.734Z,4.70
2018-07-08T22:13:34.979Z,4.07
2018-07-08T22:16:03.255Z,2.90
2018-07-08T22:18:31.342Z,4.13
2018-07-08T22:20:59.822Z,3.10
2018-07-08T22:23:28.023Z,3.00
2018-07-08T22:25:56.199Z,3.23
2018-07-08T22:28:24.399Z,3.10
2018-07-08T22:30:52.567Z,3.20
2018-07-08T22:33:20.980Z,2.90
2018-07-08T22:35:49.274Z,2.87
2018-07-08T22:38:17.571Z,3.33
2018-07-08T22:40:46.015Z,3.30
2018-07-08T22:43:14.274Z,3.37
2018-07-08T22:45:42.482Z,3.33
2018-07-08T22:48:20.490Z,3.37
2018-07-08T22:50:48.854Z,3.63
2018-07-08T22:53:16.994Z,3.10
2018-07-08T22:55:45.179Z,8.80
2018-07-08T22:58:13.343Z,6.57
2018-07-08T23:00:52.808Z,5.37
2018-07-08T23:04:02.433Z,4.97
2018-07-08T23:06:30.710Z,6.30
2018-07-08T23:08:58.888Z,4.60
2018-07-08T23:11:27.614Z,5.80
2018-07-08T23:13:56.680Z,5.50
2018-07-08T23:16:25.452Z,5.60
2018-07-08T23:18:53.681Z,5.10
2018-07-08T23:21:21.887Z,5.60
2018-07-08T23:23:50.029Z,5.80
2018-07-08T23:26:18.145Z,6.87
2018-07-08T23:28:46.286Z,6.57
2018-07-08T23:31:14.502Z,6.27
2018-07-08T23:33:42.726Z,4.77
2018-07-08T23:36:11.355Z,4.70
2018-07-08T23:38:39.530Z,4.43
2018-07-08T23:41:08.746Z,4.60
2018-07-08T23:43:36.870Z,4.30
2018-07-08T23:46:05.291Z,4.00
2018-07-08T23:48:33.773Z,4.60
2018-07-08T23:51:02.011Z,4.20
2018-07-08T23:53:30.405Z,4.10
2018-07-08T23:55:58.535Z,3.90
2018-07-08T23:58:26.823Z,3.80
